createdAt,value
2022-10-08T00:01:28.963Z,8.40
2022-10-08T00:03:56.600Z,10.43
2022-10-08T00:06:26.839Z,11.07
2022-10-08T00:08:58.876Z,11.27
2022-10-08T00:11:28.446Z,8.90
2022-10-08T00:13:55.788Z,11.87
2022-10-08T00:16:40.087Z,11.53
2022-10-08T00:19:15.513Z,8.90
2022-10-08T00:21:44.184Z,14.23
2022-10-08T00:24:16.302Z,16.67
2022-10-08T00:26:44.464Z,6.83
2022-10-08T00:29:13.785Z,10.43
2022-10-08T00:31:42.000Z,10.83
2022-10-08T00:34:11.352Z,8.03
2022-10-08T00:36:39.719Z,8.10
2022-10-08T00:39:13.673Z,10.53
2022-10-08T00:41:42.032Z,6.67
2022-10-08T00:44:46.155Z,10.70
2022-10-08T00:47:20.113Z,7.70
2022-10-08T00:49:49.856Z,11.60
2022-10-08T00:52:18.224Z,11.60
2022-10-08T00:54:45.664Z,8.80
2022-10-08T00:57:12.285Z,9.57
2022-10-08T00:59:38.949Z,8.20
2022-10-08T01:02:08.718Z,9.13
2022-10-08T01:04:37.715Z,13.70
2022-10-08T01:07:10.133Z,15.70
2022-10-08T01:09:50.901Z,14.97
2022-10-08T01:12:44.936Z,8.70
2022-10-08T01:15:26.523Z,7.50
2022-10-08T01:18:07.946Z,8.63
2022-10-08T01:20:42.422Z,8.87
2022-10-08T01:23:11.611Z,10.90
2022-10-08T01:26:05.890Z,12.10
2022-10-08T01:28:43.686Z,9.07
2022-10-08T01:31:21.398Z,9.23
2022-10-08T01:34:00.230Z,5.43
2022-10-08T01:36:32.318Z,13.90
2022-10-08T01:39:02.895Z,12.97
2022-10-08T01:41:32.388Z,9.20
2022-10-08T01:44:10.992Z,11.03
2022-10-08T01:46:41.024Z,12.33
2022-10-08T01:49:13.036Z,8.37
2022-10-08T01:51:47.100Z,7.27
2022-10-08T01:54:16.261Z,6.43
2022-10-08T01:56:45.920Z,10.33
2022-10-08T01:59:19.445Z,11.43
2022-10-08T02:02:20.771Z,19.97
2022-10-08T02:04:49.097Z,7.63
2022-10-08T02:07:18.459Z,7.93
2022-10-08T02:09:48.053Z,8.03
2022-10-08T02:12:14.451Z,10.60
2022-10-08T02:14:47.298Z,9.30
2022-10-08T02:17:53.640Z,10.60
2022-10-08T02:20:32.478Z,12.23
2022-10-08T02:23:29.760Z,12.33
2022-10-08T02:26:13.393Z,7.07
2022-10-08T02:28:47.155Z,8.40
2022-10-08T02:31:36.653Z,11.77
2022-10-08T02:34:08.741Z,7.90
2022-10-08T02:36:40.580Z,9.53
2022-10-08T02:39:08.331Z,7.67
2022-10-08T02:41:40.673Z,8.50
2022-10-08T02:44:14.383Z,10.23
2022-10-08T02:46:44.067Z,7.07
2022-10-08T02:49:18.007Z,13.00
2022-10-08T02:51:49.901Z,10.47
2022-10-08T02:54:19.995Z,13.20
2022-10-08T02:56:52.156Z,7.20
2022-10-08T02:59:20.946Z,12.50
2022-10-08T03:01:56.139Z,10.77
2022-10-08T03:04:29.042Z,7.40
2022-10-08T03:06:57.302Z,6.97
2022-10-08T03:09:25.961Z,7.73
2022-10-08T03:11:52.812Z,9.17
2022-10-08T03:14:22.285Z,8.53
2022-10-08T03:16:48.693Z,14.70
2022-10-08T03:19:17.381Z,7.37
2022-10-08T03:21:45.749Z,7.53
2022-10-08T03:24:14.378Z,7.40
2022-10-08T03:26:41.488Z,13.67
2022-10-08T03:29:09.064Z,10.50
2022-10-08T03:31:35.806Z,9.40
2022-10-08T03:34:02.108Z,11.33
2022-10-08T03:36:29.201Z,8.83
2022-10-08T03:38:55.521Z,8.43
2022-10-08T03:41:21.841Z,7.83
2022-10-08T03:43:48.165Z,12.80
2022-10-08T03:46:15.085Z,7.37
2022-10-08T03:48:42.319Z,10.83
2022-10-08T03:51:12.161Z,10.07
2022-10-08T03:53:40.147Z,7.87
2022-10-08T03:56:09.631Z,7.87
2022-10-08T03:58:36.058Z,12.80
2022-10-08T04:01:09.020Z,9.03
2022-10-08T04:03:35.349Z,8.90
2022-10-08T04:06:02.331Z,13.70
2022-10-08T04:08:29.088Z,8.83
2022-10-08T04:10:56.208Z,8.03
2022-10-08T04:13:22.795Z,10.23
2022-10-08T04:15:50.768Z,16.13
2022-10-08T04:18:17.575Z,16.43
2022-10-08T04:20:44.180Z,10.90
2022-10-08T04:23:11.162Z,7.47
2022-10-08T04:25:37.925Z,10.47
2022-10-08T04:28:05.800Z,8.60
2022-10-08T04:30:32.698Z,10.27
2022-10-08T04:32:59.034Z,13.67
2022-10-08T04:35:25.455Z,9.60
2022-10-08T04:37:51.773Z,9.80
2022-10-08T04:40:18.045Z,11.10
2022-10-08T04:42:44.570Z,15.90
2022-10-08T04:45:11.582Z,7.67
2022-10-08T04:47:37.898Z,10.37
2022-10-08T04:50:04.552Z,10.73
2022-10-08T04:52:31.937Z,7.87
2022-10-08T04:54:58.243Z,10.80
2022-10-08T04:57:24.520Z,8.47
2022-10-08T05:00:16.647Z,6.90
2022-10-08T05:02:37.180Z,9.33
2022-10-08T05:05:03.780Z,15.13
2022-10-08T05:07:30.096Z,8.67
2022-10-08T05:09:56.405Z,7.53
2022-10-08T05:12:22.722Z,11.23
2022-10-08T05:14:48.993Z,8.37
2022-10-08T05:17:15.377Z,10.53
2022-10-08T05:19:41.643Z,11.87
2022-10-08T05:22:07.958Z,11.53
2022-10-08T05:24:34.251Z,14.37
2022-10-08T05:27:00.561Z,7.40
2022-10-08T05:29:28.629Z,8.43
2022-10-08T05:31:54.954Z,9.30
2022-10-08T05:34:21.453Z,9.07
2022-10-08T05:36:47.818Z,10.90
2022-10-08T05:39:14.161Z,14.43
2022-10-08T05:41:41.081Z,10.57
2022-10-08T05:44:09.577Z,12.60
2022-10-08T05:46:37.207Z,10.40
2022-10-08T05:49:06.218Z,15.73
2022-10-08T05:51:32.761Z,10.17
2022-10-08T05:54:00.237Z,9.83
2022-10-08T05:56:28.022Z,8.57
2022-10-08T05:58:54.809Z,11.17
2022-10-08T06:01:28.015Z,14.83
2022-10-08T06:03:56.881Z,11.13
2022-10-08T06:06:24.328Z,10.27
2022-10-08T06:09:00.759Z,12.60
2022-10-08T06:11:28.304Z,13.23
2022-10-08T06:13:58.177Z,10.60
2022-10-08T06:16:25.389Z,9.87
2022-10-08T06:18:51.816Z,16.67
2022-10-08T06:21:24.389Z,8.60
2022-10-08T06:23:55.963Z,8.70
2022-10-08T06:26:25.934Z,11.97
2022-10-08T06:28:52.569Z,12.47
2022-10-08T06:31:20.005Z,7.03
2022-10-08T06:33:46.532Z,12.73
2022-10-08T06:36:24.362Z,9.17
2022-10-08T06:38:52.457Z,10.53
2022-10-08T06:41:19.721Z,9.70
2022-10-08T06:43:46.146Z,8.77
2022-10-08T06:46:12.700Z,13.50
2022-10-08T06:48:39.624Z,16.27
2022-10-08T06:51:09.436Z,10.30
2022-10-08T06:53:35.744Z,10.87
2022-10-08T06:56:05.114Z,11.43
2022-10-08T06:58:31.757Z,13.57
2022-10-08T07:01:09.564Z,7.60
2022-10-08T07:03:37.737Z,9.20
2022-10-08T07:06:12.400Z,9.53
2022-10-08T07:08:39.175Z,7.60
2022-10-08T07:11:16.070Z,9.50
2022-10-08T07:13:43.349Z,9.43
2022-10-08T07:16:14.700Z,11.43
2022-10-08T07:18:45.715Z,13.87
2022-10-08T07:21:14.074Z,9.07
2022-10-08T07:23:40.379Z,16.13
2022-10-08T07:26:18.896Z,13.67
2022-10-08T07:28:54.246Z,14.47
2022-10-08T07:31:23.647Z,16.87
2022-10-08T07:33:50.486Z,17.07
2022-10-08T07:36:21.718Z,16.13
2022-10-08T07:38:48.102Z,15.53
2022-10-08T07:41:14.782Z,15.90
2022-10-08T07:43:41.278Z,16.07
2022-10-08T07:46:09.681Z,17.67
2022-10-08T07:48:36.397Z,18.13
2022-10-08T07:51:19.858Z,16.07
2022-10-08T07:53:46.623Z,13.63
2022-10-08T07:56:14.547Z,18.40
2022-10-08T07:58:41.566Z,19.60
2022-10-08T08:01:10.720Z,20.17
2022-10-08T08:03:37.468Z,18.67
2022-10-08T08:06:09.506Z,16.67
2022-10-08T08:08:37.498Z,17.53
2022-10-08T08:11:05.858Z,21.00
2022-10-08T08:13:37.006Z,20.67
2022-10-08T08:16:06.662Z,24.77
2022-10-08T08:18:35.729Z,17.90
2022-10-08T08:21:11.253Z,22.80
2022-10-08T08:23:40.053Z,27.77
2022-10-08T08:26:12.639Z,21.20
2022-10-08T08:28:39.654Z,19.43
2022-10-08T08:31:17.389Z,22.47
2022-10-08T08:33:48.417Z,25.33
2022-10-08T08:36:14.789Z,19.10
2022-10-08T08:38:41.146Z,24.90
2022-10-08T08:41:26.190Z,24.23
2022-10-08T08:44:01.313Z,20.43
2022-10-08T08:46:33.268Z,19.67
2022-10-08T08:49:07.567Z,21.60
2022-10-08T08:51:34.579Z,15.17
2022-10-08T08:54:00.961Z,14.37
2022-10-08T08:56:27.962Z,18.57
2022-10-08T08:59:05.725Z,19.90
2022-10-08T09:01:46.449Z,15.77
2022-10-08T09:04:24.777Z,18.77
2022-10-08T09:06:53.251Z,17.43
2022-10-08T09:09:33.541Z,18.10
2022-10-08T09:12:03.102Z,15.20
2022-10-08T09:14:38.492Z,12.23
2022-10-08T09:17:14.800Z,11.80
2022-10-08T09:19:41.413Z,14.57
2022-10-08T09:22:23.006Z,13.63
2022-10-08T09:25:03.190Z,12.83
2022-10-08T09:27:47.525Z,15.53
2022-10-08T09:30:39.113Z,10.97
2022-10-08T09:33:29.475Z,9.90
2022-10-08T09:35:55.937Z,14.23
2022-10-08T09:38:27.998Z,12.20
2022-10-08T09:41:05.282Z,11.23
2022-10-08T09:43:33.913Z,12.17
2022-10-08T09:46:04.696Z,12.63
2022-10-08T09:48:31.430Z,14.27
2022-10-08T09:51:10.956Z,11.93
2022-10-08T09:53:40.475Z,9.17
2022-10-08T09:56:08.965Z,16.57
2022-10-08T09:58:47.966Z,12.67
2022-10-08T10:01:16.665Z,10.73
2022-10-08T10:04:00.945Z,9.30
2022-10-08T10:06:37.122Z,8.07
2022-10-08T10:09:26.265Z,9.90
2022-10-08T10:12:10.340Z,10.60
2022-10-08T10:14:52.784Z,8.93
2022-10-08T10:17:41.142Z,9.50
2022-10-08T10:20:07.770Z,10.00
2022-10-08T10:22:56.836Z,12.13
2022-10-08T10:25:57.497Z,10.70
2022-10-08T10:28:57.166Z,10.97
2022-10-08T10:31:31.626Z,10.60
2022-10-08T10:34:13.453Z,6.63
2022-10-08T10:36:50.556Z,7.23
2022-10-08T10:39:36.313Z,12.17
2022-10-08T10:42:22.868Z,12.80
2022-10-08T10:45:10.842Z,8.13
2022-10-08T10:47:37.194Z,10.50
2022-10-08T10:50:03.653Z,7.37
2022-10-08T10:53:15.599Z,10.47
2022-10-08T10:55:55.452Z,7.83
2022-10-08T10:58:31.325Z,10.27
2022-10-08T11:01:22.120Z,10.43
2022-10-08T11:03:58.750Z,8.73
2022-10-08T11:06:45.746Z,7.80
2022-10-08T11:09:28.238Z,9.27
2022-10-08T11:11:59.666Z,9.27
2022-10-08T11:14:47.980Z,10.47
2022-10-08T11:17:16.749Z,6.00
2022-10-08T11:20:21.512Z,8.43
2022-10-08T11:23:02.115Z,6.97
2022-10-08T11:25:49.458Z,8.07
2022-10-08T11:28:39.515Z,7.90
2022-10-08T11:31:21.088Z,8.70
2022-10-08T11:33:49.001Z,7.30
2022-10-08T11:36:32.885Z,6.43
2022-10-08T11:39:15.296Z,7.43
2022-10-08T11:41:56.635Z,8.00
2022-10-08T11:44:23.646Z,8.30
2022-10-08T11:46:49.954Z,7.97
2022-10-08T11:49:16.219Z,5.63
2022-10-08T11:51:44.482Z,6.77
2022-10-08T11:54:23.139Z,5.37
2022-10-08T11:56:52.481Z,6.90
2022-10-08T11:59:28.610Z,8.80
2022-10-08T12:02:01.464Z,6.20
2022-10-08T12:04:34.810Z,9.97
2022-10-08T12:07:23.437Z,4.70
2022-10-08T12:10:04.811Z,5.60
2022-10-08T12:12:51.216Z,4.90
2022-10-08T12:15:40.184Z,5.93
2022-10-08T12:18:25.118Z,4.20
2022-10-08T12:21:17.060Z,4.93
2022-10-08T12:23:44.702Z,7.80
2022-10-08T12:26:13.918Z,3.87
2022-10-08T12:28:43.040Z,5.60
2022-10-08T12:31:40.146Z,3.37
2022-10-08T12:34:20.011Z,4.27
2022-10-08T12:36:58.840Z,5.37
2022-10-08T12:39:42.964Z,3.67
2022-10-08T12:42:31.121Z,3.80
2022-10-08T12:45:14.909Z,4.70
2022-10-08T12:47:47.182Z,5.53
2022-10-08T12:50:32.617Z,7.63
2022-10-08T12:53:00.745Z,4.20
2022-10-08T12:55:27.401Z,3.20
2022-10-08T12:57:54.321Z,5.70
2022-10-08T13:00:29.443Z,5.27
2022-10-08T13:03:07.356Z,4.93
2022-10-08T13:05:39.081Z,6.23
2022-10-08T13:08:38.890Z,3.80
2022-10-08T13:11:08.062Z,3.33
2022-10-08T13:13:40.426Z,4.97
2022-10-08T13:16:09.057Z,3.60
2022-10-08T13:18:37.032Z,8.53
2022-10-08T13:21:22.513Z,4.43
2022-10-08T13:23:48.815Z,7.20
2022-10-08T13:26:37.333Z,4.40
2022-10-08T13:29:22.257Z,4.77
2022-10-08T13:32:03.768Z,2.70
2022-10-08T13:34:39.199Z,4.13
2022-10-08T13:37:09.301Z,2.13
2022-10-08T13:39:39.341Z,4.83
2022-10-08T13:42:09.785Z,2.80
2022-10-08T13:44:38.627Z,4.33
2022-10-08T13:47:05.467Z,2.30
2022-10-08T13:49:32.821Z,5.60
2022-10-08T13:52:00.326Z,5.30
2022-10-08T13:54:30.435Z,2.90
2022-10-08T13:56:57.142Z,4.03
2022-10-08T13:59:28.214Z,4.57
2022-10-08T14:01:56.735Z,2.70
2022-10-08T14:04:23.295Z,5.13
2022-10-08T14:06:54.223Z,5.63
2022-10-08T14:09:24.186Z,5.90
2022-10-08T14:11:56.271Z,5.37
2022-10-08T14:14:24.098Z,4.03
2022-10-08T14:16:51.212Z,5.87
2022-10-08T14:19:18.238Z,5.33
2022-10-08T14:21:44.864Z,2.90
2022-10-08T14:24:12.312Z,2.90
2022-10-08T14:26:38.725Z,3.60
2022-10-08T14:29:05.022Z,4.53
2022-10-08T14:31:31.403Z,3.40
2022-10-08T14:33:57.881Z,5.43
2022-10-08T14:36:31.660Z,4.40
2022-10-08T14:38:57.953Z,4.57
2022-10-08T14:41:24.289Z,4.93
2022-10-08T14:43:50.667Z,10.53
2022-10-08T14:46:17.085Z,4.30
2022-10-08T14:48:43.375Z,4.53
2022-10-08T14:51:09.728Z,2.73
2022-10-08T14:53:36.078Z,5.30
2022-10-08T14:56:12.154Z,3.20
2022-10-08T14:58:39.274Z,6.27
2022-10-08T15:01:06.048Z,3.80
2022-10-08T15:03:32.606Z,4.77
2022-10-08T15:06:00.257Z,1.97
2022-10-08T15:08:27.312Z,3.97
2022-10-08T15:10:53.681Z,3.10
2022-10-08T15:13:20.068Z,3.87
2022-10-08T15:15:46.425Z,3.53
2022-10-08T15:18:12.788Z,4.17
2022-10-08T15:20:39.274Z,6.80
2022-10-08T15:23:07.091Z,3.70
2022-10-08T15:25:33.870Z,6.47
2022-10-08T15:28:00.616Z,9.03
2022-10-08T15:30:27.076Z,4.70
2022-10-08T15:32:53.697Z,3.80
2022-10-08T15:35:20.037Z,3.70
2022-10-08T15:37:47.051Z,4.60
2022-10-08T15:40:13.429Z,5.83
2022-10-08T15:42:39.712Z,5.63
2022-10-08T15:45:06.439Z,5.10
2022-10-08T15:47:32.947Z,5.43
2022-10-08T15:49:59.715Z,3.90
2022-10-08T15:52:26.429Z,7.87
2022-10-08T15:54:52.820Z,5.80
2022-10-08T15:57:19.259Z,6.50
2022-10-08T15:59:45.670Z,4.43
2022-10-08T16:02:17.098Z,4.33
2022-10-08T16:04:45.472Z,4.93
2022-10-08T16:07:12.300Z,3.40
2022-10-08T16:09:38.798Z,5.60
2022-10-08T16:12:05.252Z,4.80
2022-10-08T16:14:31.696Z,5.60
2022-10-08T16:16:58.136Z,3.60
2022-10-08T16:19:26.689Z,3.77
2022-10-08T16:21:55.191Z,7.30
2022-10-08T16:24:22.915Z,4.37
2022-10-08T16:26:49.473Z,3.20
2022-10-08T16:29:17.975Z,5.00
2022-10-08T16:31:45.664Z,5.00
2022-10-08T16:34:17.659Z,4.23
2022-10-08T16:36:45.839Z,4.63
2022-10-08T16:39:13.645Z,3.90
2022-10-08T16:41:40.823Z,4.20
2022-10-08T16:44:18.791Z,6.03
2022-10-08T16:46:51.031Z,5.90
2022-10-08T16:49:26.517Z,6.10
2022-10-08T16:51:58.984Z,6.53
2022-10-08T16:54:26.723Z,4.27
2022-10-08T16:56:53.552Z,3.67
2022-10-08T16:59:22.926Z,5.80
2022-10-08T17:01:51.758Z,5.53
2022-10-08T17:04:23.512Z,7.43
2022-10-08T17:06:49.992Z,5.47
2022-10-08T17:09:16.914Z,6.03
2022-10-08T17:11:43.896Z,5.87
2022-10-08T17:14:11.639Z,4.90
2022-10-08T17:16:39.313Z,5.20
2022-10-08T17:19:06.021Z,5.53
2022-10-08T17:21:34.764Z,8.73
2022-10-08T17:24:02.377Z,9.10
2022-10-08T17:26:30.161Z,4.70
2022-10-08T17:28:57.322Z,7.77
2022-10-08T17:31:29.249Z,6.60
2022-10-08T17:33:55.598Z,5.20
2022-10-08T17:36:27.346Z,4.10
2022-10-08T17:38:56.776Z,7.97
2022-10-08T17:41:28.145Z,4.90
2022-10-08T17:43:58.525Z,7.43
2022-10-08T17:46:37.983Z,4.97
2022-10-08T17:49:05.480Z,6.23
2022-10-08T17:51:32.178Z,7.13
2022-10-08T17:54:01.312Z,7.00
2022-10-08T17:56:28.581Z,9.13
2022-10-08T17:58:55.136Z,7.40
2022-10-08T18:01:26.800Z,5.63
2022-10-08T18:03:56.290Z,6.80
2022-10-08T18:06:23.376Z,4.73
2022-10-08T18:08:55.100Z,5.77
2022-10-08T18:11:21.523Z,4.37
2022-10-08T18:13:47.813Z,7.57
2022-10-08T18:16:16.777Z,6.93
2022-10-08T18:18:44.291Z,17.87
2022-10-08T18:21:15.937Z,5.93
2022-10-08T18:23:48.847Z,5.67
2022-10-08T18:26:24.049Z,7.67
2022-10-08T18:28:53.128Z,5.60
2022-10-08T18:31:20.743Z,6.13
2022-10-08T18:33:49.924Z,6.50
2022-10-08T18:36:22.064Z,6.33
2022-10-08T18:38:55.615Z,8.43
2022-10-08T18:41:29.315Z,6.27
2022-10-08T18:43:56.872Z,6.37
2022-10-08T18:46:23.607Z,8.27
2022-10-08T18:48:50.078Z,9.90
2022-10-08T18:51:22.651Z,10.47
2022-10-08T18:53:50.053Z,5.73
2022-10-08T18:56:19.793Z,7.20
2022-10-08T18:58:46.958Z,9.33
2022-10-08T19:01:22.167Z,5.90
2022-10-08T19:03:50.851Z,8.57
2022-10-08T19:06:19.173Z,9.37
2022-10-08T19:08:46.937Z,6.63
2022-10-08T19:11:16.820Z,7.67
2022-10-08T19:13:44.448Z,7.13
2022-10-08T19:16:15.250Z,7.47
2022-10-08T19:18:59.168Z,8.60
2022-10-08T19:21:26.592Z,9.40
2022-10-08T19:23:53.162Z,10.10
2022-10-08T19:26:19.601Z,9.80
2022-10-08T19:28:50.992Z,9.60
2022-10-08T19:31:22.919Z,10.43
2022-10-08T19:33:50.443Z,7.37
2022-10-08T19:36:17.839Z,10.63
2022-10-08T19:38:44.752Z,6.90
2022-10-08T19:41:11.867Z,7.87
2022-10-08T19:43:38.339Z,9.40
2022-10-08T19:46:05.545Z,11.17
2022-10-08T19:48:32.366Z,12.50
2022-10-08T19:51:07.275Z,14.90
2022-10-08T19:53:34.111Z,9.23
2022-10-08T19:56:03.313Z,9.00
2022-10-08T19:58:29.733Z,10.83
2022-10-08T20:01:05.301Z,8.63
2022-10-08T20:03:32.308Z,10.97
2022-10-08T20:06:03.143Z,10.00
2022-10-08T20:08:29.863Z,8.83
2022-10-08T20:10:59.201Z,10.23
2022-10-08T20:13:25.770Z,7.37
2022-10-08T20:15:52.161Z,5.60
2022-10-08T20:18:18.609Z,10.27
2022-10-08T20:20:44.905Z,8.20
2022-10-08T20:23:11.233Z,7.67
2022-10-08T20:25:37.592Z,8.00
2022-10-08T20:28:03.896Z,8.20
2022-10-08T20:30:30.213Z,8.53
2022-10-08T20:32:56.489Z,8.60
2022-10-08T20:35:23.491Z,10.83
2022-10-08T20:37:49.854Z,8.30
2022-10-08T20:40:16.264Z,8.30
2022-10-08T20:42:42.555Z,11.77
2022-10-08T20:45:11.841Z,11.63
2022-10-08T20:47:38.321Z,11.87
2022-10-08T20:50:05.042Z,10.67
2022-10-08T20:52:31.630Z,9.30
2022-10-08T20:54:57.922Z,10.83
2022-10-08T20:57:24.306Z,13.03
2022-10-08T20:59:50.640Z,9.23
2022-10-08T21:02:19.765Z,9.23
2022-10-08T21:04:46.297Z,16.73
2022-10-08T21:07:12.630Z,11.03
2022-10-08T21:09:38.913Z,8.63
2022-10-08T21:12:05.494Z,8.87
2022-10-08T21:14:31.913Z,9.60
2022-10-08T21:16:58.217Z,9.07
2022-10-08T21:19:25.761Z,10.03
2022-10-08T21:21:52.569Z,7.50
2022-10-08T21:24:19.106Z,9.97
2022-10-08T21:26:45.459Z,10.63
2022-10-08T21:29:14.564Z,10.60
2022-10-08T21:31:41.876Z,7.23
2022-10-08T21:34:08.669Z,7.90
2022-10-08T21:36:38.104Z,8.00
2022-10-08T21:39:06.576Z,9.03
2022-10-08T21:41:35.081Z,9.03
2022-10-08T21:44:03.921Z,8.70
2022-10-08T21:46:33.226Z,10.90
2022-10-08T21:49:05.549Z,9.00
2022-10-08T21:51:33.098Z,10.10
2022-10-08T21:54:01.632Z,10.20
2022-10-08T21:56:30.440Z,9.23
2022-10-08T21:58:59.277Z,7.17
2022-10-08T22:01:31.694Z,7.47
2022-10-08T22:04:00.232Z,11.93
2022-10-08T22:06:28.625Z,7.23
2022-10-08T22:08:56.394Z,11.10
2022-10-08T22:11:23.557Z,10.93
2022-10-08T22:13:50.789Z,14.50
2022-10-08T22:16:19.074Z,9.90
2022-10-08T22:18:45.716Z,10.00
2022-10-08T22:21:16.572Z,15.37
2022-10-08T22:23:42.977Z,8.50
2022-10-08T22:26:12.590Z,8.87
2022-10-08T22:28:39.489Z,7.57
2022-10-08T22:31:08.313Z,10.07
2022-10-08T22:33:35.496Z,10.23
2022-10-08T22:36:08.001Z,8.33
2022-10-08T22:38:36.521Z,9.97
2022-10-08T22:41:14.444Z,7.47
2022-10-08T22:43:41.337Z,7.37
2022-10-08T22:46:10.970Z,7.30
2022-10-08T22:48:37.382Z,8.13
2022-10-08T22:51:06.464Z,9.90
2022-10-08T22:53:33.040Z,9.03
2022-10-08T22:55:59.759Z,10.10
2022-10-08T22:58:26.104Z,9.30
2022-10-08T23:01:03.965Z,9.30
2022-10-08T23:03:31.311Z,9.17
2022-10-08T23:06:18.382Z,10.10
2022-10-08T23:08:46.337Z,7.13
2022-10-08T23:11:14.156Z,6.27
2022-10-08T23:13:40.678Z,15.83
2022-10-08T23:16:13.058Z,7.43
2022-10-08T23:18:41.842Z,8.47
2022-10-08T23:21:12.384Z,9.23
2022-10-08T23:23:39.372Z,10.77
2022-10-08T23:26:07.167Z,9.53
2022-10-08T23:28:35.949Z,13.30
2022-10-08T23:31:09.385Z,8.43
2022-10-08T23:33:38.095Z,8.47
2022-10-08T23:36:06.844Z,8.93
2022-10-08T23:38:34.934Z,6.53
2022-10-08T23:41:02.785Z,10.20
2022-10-08T23:43:34.410Z,10.70
2022-10-08T23:46:00.806Z,8.10
2022-10-08T23:48:27.244Z,6.70
2022-10-08T23:50:53.726Z,6.90
2022-10-08T23:53:20.769Z,16.67
2022-10-08T23:55:47.476Z,9.80
2022-10-08T23:58:17.740Z,6.67
